Aérodrome :
LOGIN :

S'inscrire | Disclaimer

   EN    FR    IT 

 










Légende :    VFR   VFR Marginal   IFR   IFR Intensif   IFR Très Intensif
Visi : 
Plafond : 
>= 8 km
>= 3000ft
5 à 8 km
1000 à 3000 ft
1500m à 5 km
500 à 1000 ft
800 à 1500m
200 à 500 ft
< 800m
< 200 ft
Symboles :   Orages  Brouillard  Fortes neiges  Fortes précipitations  Vent > 20 kt
SIGMETs :   Divers  Orages  Givrage  Turbulence  Onde Orograph.  Cendres Volcan.






- Altitude de l'aérodrome : 333 ft


LIPL - Ghedi Brescia (Mil)

DERNIER METAR :
  • 270155Z 26003KT 0600 R31/1000N FG SCT002 02/01 Q1019 RMK SCT VIS MIN 0600 WIND THR31 /////KT WIND THR13 25002KT RED

METARs EXPIRÉS :
  • 270055Z 25002KT 0800 R31/0900D FG NSC 02/01 Q1019 RMK SKC VIS MIN 0800 WIND THR31 /////KT WIND THR13 24001KT RED
  • 262355Z 26002KT 1200 R31/P2000N BR NSC 02/01 Q1019 RMK SKC VIS MIN 1200 WIND THR31 /////KT WIND THR13 29002KT AMB

TAF TAF LIPL
Valide du 27 à 03h jusqu'au 27 à 12h UTC


270200Z 2703/2712 28003KT 2500 BR SCT030
TEMPO 2703/2708 0600 FG BKN005



MET'MAP, la Météo Aéronautique d'un coup d'oeil ! - Copyright ORBIFLY Décembre 2007 - Disclaimer

ORBIFLY MET'MAP TEAM :

Programmation & Développement : Alexandra Zaïnal
Sur une idée originale de : Baudouin d'Aumeries
Assistance à la programmation : Marc-Olivier Méhu
Soutien technique & logistique : Manuel Goepfert

Contact : metmap@orbifly.com




SOURCES & CREDITS :

   NOAA